Time;durP1;ratioP1;P1;durP2;ratioP2;P2;SDS_P1;SDS_P2;PMS_P1;PMS_P2;Temp;Humidity;BMP_temperature;BMP_pressure;BME280_temperature;BME280_humidity;BME280_pressure;Samples;Min_cycle;Max_cycle;Signal;HPM_P1;HPM_P2
2023/09/25 00:01:56;;;;;;;6.90;4.00;;;;;;;14.64;98.72;98877.96;107602;1284;23775;-95
2023/09/25 00:04:25;;;;;;;9.70;4.10;;;;;;;14.64;98.75;98879.30;107539;1284;22546;-93
2023/09/25 00:06:54;;;;;;;5.30;3.50;;;;;;;14.68;98.88;98880.86;107142;1284;23670;-93
2023/09/25 00:09:23;;;;;;;5.80;4.10;;;;;;;14.72;98.77;98881.91;106948;1284;24633;-92
2023/09/25 00:11:51;;;;;;;4.20;3.60;;;;;;;14.72;98.84;98874.58;106934;1284;22606;-91
2023/09/25 00:14:19;;;;;;;5.80;3.90;;;;;;;14.72;98.81;98874.93;106895;1285;23373;-94
2023/09/25 00:16:47;;;;;;;4.80;3.30;;;;;;;14.70;98.84;98875.88;106803;1285;25562;-92
2023/09/25 00:19:16;;;;;;;4.80;3.40;;;;;;;14.70;98.76;98877.70;106710;1284;22564;-92
2023/09/25 00:21:44;;;;;;;7.00;3.40;;;;;;;14.72;98.79;98880.61;107280;1284;22971;-93
2023/09/25 00:24:13;;;;;;;5.70;3.40;;;;;;;14.74;98.74;98880.89;107693;1284;22503;-93
2023/09/25 00:26:41;;;;;;;5.60;4.10;;;;;;;14.73;98.92;98881.17;108206;1275;22479;-95
2023/09/25 00:29:14;;;;;;;4.20;3.40;;;;;;;14.73;98.95;98880.64;108221;1277;24450;-95
2023/09/25 00:31:42;;;;;;;6.10;3.70;;;;;;;14.71;98.97;98871.67;107577;1284;174455;-94
2023/09/25 00:34:10;;;;;;;6.10;3.70;;;;;;;14.73;98.76;98869.25;107734;1284;22607;-93
2023/09/25 00:36:38;;;;;;;5.20;3.50;;;;;;;14.74;98.89;98871.52;107227;1283;22553;-93
2023/09/25 00:39:07;;;;;;;7.20;3.80;;;;;;;14.77;98.90;98871.35;107124;1284;22531;-92
2023/09/25 00:42:03;;;;;;;6.60;3.70;;;;;;;14.77;98.99;98866.18;107149;1284;22495;-94
2023/09/25 00:44:32;;;;;;;5.60;4.00;;;;;;;14.75;99.03;98869.96;107350;1285;23471;-93
2023/09/25 00:47:00;;;;;;;6.10;4.30;;;;;;;14.73;99.11;98862.47;107292;1284;24219;-93
2023/09/25 00:49:31;;;;;;;5.60;3.60;;;;;;;14.72;99.03;98859.13;107058;1285;23852;-92
2023/09/25 00:51:59;;;;;;;4.10;3.70;;;;;;;14.71;99.09;98851.22;107088;1284;25432;-94
2023/09/25 00:54:31;;;;;;;4.00;3.50;;;;;;;14.70;99.10;98850.75;106992;1284;22548;-92
2023/09/25 00:57:10;;;;;;;6.00;3.50;;;;;;;14.70;99.27;98857.63;106893;1281;24258;-92
2023/09/25 00:59:39;;;;;;;5.20;3.70;;;;;;;14.71;99.13;98856.23;107334;1283;22911;-92
2023/09/25 01:02:35;;;;;;;5.20;4.70;;;;;;;14.70;99.32;98859.87;106916;1280;22765;-92
2023/09/25 01:05:13;;;;;;;5.40;4.00;;;;;;;14.67;99.42;98865.43;106595;1285;22534;-92
2023/09/25 01:07:41;;;;;;;5.30;3.90;;;;;;;14.66;99.57;98858.33;106789;1284;26520;-89
2023/09/25 01:14:37;;;;;;;4.30;3.90;;;;;;;14.68;99.52;98857.81;106779;1282;24237;-92
2023/09/25 01:17:06;;;;;;;5.50;4.10;;;;;;;14.68;99.64;98857.85;106783;1277;24226;-90
2023/09/25 01:24:03;;;;;;;5.20;4.20;;;;;;;14.68;99.99;98856.92;106546;1277;22545;-89
2023/09/25 01:26:32;;;;;;;6.30;5.30;;;;;;;14.68;99.99;98863.27;106438;1284;22533;-89
2023/09/25 01:29:00;;;;;;;5.80;4.50;;;;;;;14.70;99.94;98865.61;106476;1283;24234;-88
2023/09/25 01:31:28;;;;;;;4.90;4.10;;;;;;;14.73;99.92;98865.17;106449;1277;22588;-88
2023/09/25 01:33:56;;;;;;;6.30;4.50;;;;;;;14.76;100.00;98862.89;106477;1284;25136;-89
2023/09/25 01:36:25;;;;;;;6.40;4.50;;;;;;;14.79;100.00;98865.07;106680;1285;22561;-89
2023/09/25 01:38:53;;;;;;;5.30;4.40;;;;;;;14.79;100.00;98857.90;106585;1279;26518;-88
2023/09/25 01:41:22;;;;;;;6.90;4.90;;;;;;;14.77;100.00;98855.17;106884;1283;24247;-88
2023/09/25 01:43:51;;;;;;;7.00;4.40;;;;;;;14.76;100.00;98856.33;107148;1284;24226;-88
2023/09/25 01:46:21;;;;;;;9.00;4.70;;;;;;;14.77;100.00;98854.37;106776;1283;24320;-87
2023/09/25 01:48:50;;;;;;;7.70;4.30;;;;;;;14.79;100.00;98856.12;106607;1284;24363;-87
2023/09/25 01:51:19;;;;;;;6.50;4.10;;;;;;;14.83;100.00;98851.14;106653;1284;22749;-88
2023/09/25 01:53:50;;;;;;;7.40;4.70;;;;;;;14.84;100.00;98848.67;106505;1284;22794;-88
2023/09/25 01:56:18;;;;;;;8.20;4.70;;;;;;;14.83;100.00;98844.52;106674;1284;24238;-93
2023/09/25 01:58:46;;;;;;;8.40;5.00;;;;;;;14.81;100.00;98842.67;106704;1284;24245;-94
2023/09/25 02:01:15;;;;;;;6.10;4.60;;;;;;;14.81;100.00;98841.65;106762;1269;22601;-90
2023/09/25 02:08:13;;;;;;;7.80;5.50;;;;;;;14.84;100.00;98836.14;106632;1284;23919;-91
2023/09/25 02:10:41;;;;;;;6.80;4.80;;;;;;;14.85;100.00;98841.43;106656;1284;23227;-92
2023/09/25 02:13:09;;;;;;;7.90;4.60;;;;;;;14.84;100.00;98848.52;106556;1284;22502;-92
2023/09/25 02:15:37;;;;;;;7.70;5.20;;;;;;;14.86;100.00;98846.74;106629;1284;22594;-91
2023/09/25 02:18:08;;;;;;;8.20;5.20;;;;;;;14.85;100.00;98840.30;106806;1284;22553;-91
2023/09/25 02:20:36;;;;;;;6.10;4.80;;;;;;;14.87;100.00;98843.20;106634;1284;24225;-91
2023/09/25 02:23:06;;;;;;;7.70;5.00;;;;;;;14.89;100.00;98842.43;106802;1284;24471;-90
2023/09/25 02:25:34;;;;;;;9.60;4.80;;;;;;;14.92;100.00;98843.14;106724;1283;22543;-92
2023/09/25 02:28:03;;;;;;;8.90;5.20;;;;;;;14.92;100.00;98838.19;106769;1281;26507;-93
2023/09/25 02:30:31;;;;;;;10.20;5.30;;;;;;;14.92;100.00;98840.55;106666;1284;22821;-92
2023/09/25 02:32:59;;;;;;;7.20;5.10;;;;;;;14.90;100.00;98843.18;106596;1284;25435;-93
2023/09/25 02:35:28;;;;;;;9.10;4.70;;;;;;;14.89;100.00;98842.82;106663;1281;22537;-92
2023/09/25 02:37:56;;;;;;;5.70;4.40;;;;;;;14.90;100.00;98838.67;106720;1284;22549;-91
2023/09/25 02:40:24;;;;;;;5.30;4.60;;;;;;;14.91;100.00;98839.84;106639;1284;25654;-92
2023/09/25 02:42:52;;;;;;;5.80;4.70;;;;;;;14.93;100.00;98834.27;106730;1284;22544;-92
2023/09/25 02:45:20;;;;;;;6.50;5.10;;;;;;;14.95;100.00;98831.35;106661;1284;22547;-91
2023/09/25 02:47:49;;;;;;;6.10;5.00;;;;;;;14.94;100.00;98838.11;106735;1276;22536;-92
2023/09/25 02:50:17;;;;;;;6.70;4.90;;;;;;;14.91;100.00;98839.48;108907;1284;22546;-92
2023/09/25 02:52:45;;;;;;;6.90;4.90;;;;;;;14.88;100.00;98835.52;108867;1283;22568;-91
2023/09/25 02:55:13;;;;;;;5.40;4.60;;;;;;;14.87;100.00;98829.66;107126;1284;24583;-90
2023/09/25 02:57:42;;;;;;;6.60;4.60;;;;;;;14.89;100.00;98826.53;107045;1284;25395;-91
2023/09/25 03:00:12;;;;;;;5.50;4.30;;;;;;;14.88;100.00;98828.31;106704;1284;22654;-91
2023/09/25 03:02:42;;;;;;;5.30;4.60;;;;;;;14.89;100.00;98830.46;106687;1284;24089;-90
2023/09/25 03:05:11;;;;;;;7.90;4.70;;;;;;;14.89;100.00;98834.90;106743;1265;22645;-90
2023/09/25 03:07:40;;;;;;;7.70;4.50;;;;;;;14.89;100.00;98835.06;106630;1284;22699;-93
2023/09/25 03:10:08;;;;;;;6.80;4.90;;;;;;;14.89;100.00;98833.71;106649;1284;22470;-92
2023/09/25 03:12:38;;;;;;;6.50;4.70;;;;;;;14.85;100.00;98833.19;106591;1284;22565;-92
2023/09/25 03:15:08;;;;;;;7.90;5.20;;;;;;;14.83;100.00;98835.85;106548;1284;22536;-91
2023/09/25 03:17:39;;;;;;;6.00;5.00;;;;;;;14.80;100.00;98840.30;106675;1284;22587;-91
2023/09/25 03:20:14;;;;;;;5.80;4.40;;;;;;;14.80;100.00;98841.35;107476;1283;25362;-90
2023/09/25 03:22:45;;;;;;;8.10;5.30;;;;;;;14.80;100.00;98843.13;107091;1283;22559;-89
2023/09/25 03:25:16;;;;;;;6.00;5.10;;;;;;;14.80;100.00;98844.54;108126;1283;22526;-87
2023/09/25 03:27:44;;;;;;;7.50;5.40;;;;;;;14.79;100.00;98847.52;108879;1284;22649;-90
2023/09/25 03:30:16;;;;;;;11.00;5.60;;;;;;;14.76;100.00;98837.23;108578;1277;23330;-90
2023/09/25 03:32:44;;;;;;;10.20;6.30;;;;;;;14.77;100.00;98835.70;109086;1278;24314;-88
2023/09/25 03:35:14;;;;;;;8.50;7.60;;;;;;;14.79;100.00;98834.30;107474;1284;24272;-90
2023/09/25 03:37:42;;;;;;;6.80;5.90;;;;;;;14.81;100.00;98835.52;107367;1284;22544;-91
2023/09/25 03:40:11;;;;;;;8.50;5.80;;;;;;;14.81;100.00;98832.52;107519;1284;24343;-90
2023/09/25 03:42:41;;;;;;;8.50;5.80;;;;;;;14.85;100.00;98829.61;106638;1284;25406;-92
2023/09/25 03:45:09;;;;;;;6.90;5.80;;;;;;;14.86;100.00;98827.20;106621;1284;22660;-91
2023/09/25 03:47:37;;;;;;;9.10;6.50;;;;;;;14.86;100.00;98827.80;106524;1284;22775;-92
2023/09/25 03:50:06;;;;;;;9.30;6.90;;;;;;;14.83;100.00;98827.91;106636;1284;24270;-91
2023/09/25 03:52:35;;;;;;;8.80;6.90;;;;;;;14.79;100.00;98830.33;106490;1284;23006;-92
2023/09/25 03:55:04;;;;;;;7.90;6.70;;;;;;;14.78;100.00;98829.45;106547;1284;24356;-92
2023/09/25 03:57:32;;;;;;;10.80;6.60;;;;;;;14.76;100.00;98829.96;106549;1284;23898;-92
2023/09/25 04:00:00;;;;;;;10.00;7.80;;;;;;;14.76;100.00;98830.61;106522;1282;22567;-92
2023/09/25 04:02:38;;;;;;;7.80;6.70;;;;;;;14.75;100.00;98832.33;106599;1284;25308;-93
2023/09/25 04:05:08;;;;;;;7.90;6.90;;;;;;;14.73;100.00;98837.18;106529;1284;22656;-91
2023/09/25 04:07:37;;;;;;;8.90;7.70;;;;;;;14.72;100.00;98838.61;106646;1278;23347;-90
2023/09/25 04:10:07;;;;;;;8.10;6.90;;;;;;;14.73;100.00;98838.48;106583;1284;22565;-90
2023/09/25 04:12:35;;;;;;;9.00;6.80;;;;;;;14.73;100.00;98836.38;106671;1273;22956;-90
2023/09/25 04:15:12;;;;;;;10.20;7.20;;;;;;;14.74;100.00;98844.98;106660;1284;22599;-90
2023/09/25 04:17:40;;;;;;;8.10;7.30;;;;;;;14.75;100.00;98847.08;106713;1284;25850;-88
2023/09/25 04:20:24;;;;;;;9.50;7.60;;;;;;;14.77;100.00;98851.38;107055;1284;22530;-91
2023/09/25 04:22:58;;;;;;;11.80;8.40;;;;;;;14.79;100.00;98847.91;106760;1284;24216;-92
2023/09/25 04:25:27;;;;;;;16.70;9.20;;;;;;;14.78;100.00;98846.36;107185;1280;25296;-93
2023/09/25 04:27:56;;;;;;;9.50;8.10;;;;;;;14.77;100.00;98847.85;107352;1284;22957;-92
2023/09/25 04:30:24;;;;;;;9.90;7.90;;;;;;;14.79;100.00;98849.88;107158;1284;25318;-93
2023/09/25 04:32:55;;;;;;;10.90;8.50;;;;;;;14.81;100.00;98857.95;107191;1284;23042;-92
2023/09/25 04:35:24;;;;;;;8.90;7.90;;;;;;;14.85;100.00;98856.05;107321;1284;22636;-91
2023/09/25 04:37:53;;;;;;;10.70;8.90;;;;;;;14.86;100.00;98858.78;106933;1284;22612;-92
2023/09/25 04:40:30;;;;;;;11.00;9.40;;;;;;;14.88;100.00;98856.46;106823;1284;23891;-92
2023/09/25 04:43:00;;;;;;;11.40;9.30;;;;;;;14.88;100.00;98858.16;106994;1284;23809;-93
2023/09/25 04:45:29;;;;;;;13.20;9.30;;;;;;;14.86;100.00;98859.16;107011;1284;22540;-93
2023/09/25 04:48:37;;;;;;;9.50;8.30;;;;;;;14.86;100.00;98863.78;106606;1288;22789;-92
2023/09/25 04:51:05;;;;;;;10.20;8.40;;;;;;;14.85;100.00;98856.67;106458;1286;24038;-92
2023/09/25 04:53:34;;;;;;;11.20;8.80;;;;;;;14.89;100.00;98854.73;106573;1284;22660;-93
2023/09/25 04:56:02;;;;;;;11.80;9.20;;;;;;;14.91;100.00;98856.40;106663;1287;25635;-92
2023/09/25 05:03:01;;;;;;;12.00;10.80;;;;;;;14.93;100.00;98852.88;106720;1288;23182;-92
2023/09/25 05:05:29;;;;;;;10.80;9.70;;;;;;;14.92;100.00;98855.04;106480;1288;24967;-91
2023/09/25 05:07:57;;;;;;;10.30;9.30;;;;;;;14.92;100.00;98858.86;106336;1288;23102;-91
2023/09/25 05:10:27;;;;;;;11.50;8.90;;;;;;;14.93;100.00;98859.83;106450;1288;25412;-91
2023/09/25 05:12:56;;;;;;;11.20;8.90;;;;;;;14.95;100.00;98858.70;106517;1284;24244;-91
2023/09/25 05:19:53;;;;;;;13.10;10.20;;;;;;;14.98;100.00;98869.91;106578;1284;22597;-91
2023/09/25 05:22:21;;;;;;;10.00;9.10;;;;;;;15.01;100.00;98872.98;106704;1265;22609;-89
2023/09/25 05:24:49;;;;;;;11.10;10.10;;;;;;;15.00;100.00;98875.48;106725;1284;25246;-86
2023/09/25 05:27:18;;;;;;;10.50;9.60;;;;;;;15.00;100.00;98873.31;106679;1284;22589;-89
2023/09/25 05:29:46;;;;;;;11.10;10.00;;;;;;;15.01;100.00;98878.27;106576;1284;23883;-87
2023/09/25 05:32:14;;;;;;;11.50;10.40;;;;;;;15.03;100.00;98879.05;106759;1283;22718;-86
2023/09/25 05:34:42;;;;;;;11.30;10.10;;;;;;;15.04;100.00;98874.64;106744;1284;22531;-88
2023/09/25 05:37:10;;;;;;;12.30;11.10;;;;;;;15.06;100.00;98871.08;106694;1277;22631;-86
2023/09/25 05:39:38;;;;;;;13.00;11.80;;;;;;;15.07;100.00;98870.73;106725;1284;22623;-87
2023/09/25 05:42:36;;;;;;;11.00;10.00;;;;;;;15.06;100.00;98865.27;106707;1284;22598;-87
2023/09/25 05:45:05;;;;;;;11.10;10.10;;;;;;;15.09;100.00;98865.08;106777;1276;22543;-88
2023/09/25 05:47:34;;;;;;;11.10;10.10;;;;;;;15.10;100.00;98860.39;108329;1284;22563;-87
2023/09/25 05:50:06;;;;;;;13.10;11.30;;;;;;;15.13;100.00;98860.07;109752;1284;22520;-91
2023/09/25 05:52:37;;;;;;;12.00;10.90;;;;;;;15.12;100.00;98864.31;108045;1284;24456;-90
2023/09/25 05:55:06;;;;;;;11.10;10.00;;;;;;;15.11;100.00;98865.80;107412;1272;22534;-87
2023/09/25 05:57:35;;;;;;;12.80;10.10;;;;;;;15.11;100.00;98868.20;106724;1284;22652;-82
2023/09/25 06:00:12;;;;;;;13.10;10.30;;;;;;;15.11;100.00;98867.11;106872;1282;22694;-84
2023/09/25 06:02:43;;;;;;;11.20;10.00;;;;;;;15.15;100.00;98872.35;106674;1278;25358;-84
2023/09/25 06:05:15;;;;;;;12.70;11.50;;;;;;;15.17;100.00;98866.33;106792;1280;22533;-85
2023/09/25 06:07:44;;;;;;;14.20;11.30;;;;;;;15.18;100.00;98869.43;106775;1281;22541;-85
2023/09/25 06:10:13;;;;;;;13.50;12.10;;;;;;;15.21;100.00;98872.98;106662;1283;25419;-85
2023/09/25 06:12:41;;;;;;;12.50;10.80;;;;;;;15.21;100.00;98877.81;106525;1277;22663;-85
2023/09/25 06:15:10;;;;;;;11.50;10.40;;;;;;;15.24;100.00;98877.27;106658;1281;24259;-84
2023/09/25 06:17:40;;;;;;;12.50;11.40;;;;;;;15.25;100.00;98882.50;106654;1284;22559;-84
2023/09/25 06:20:15;;;;;;;13.50;12.20;;;;;;;15.27;100.00;98880.98;106624;1273;22530;-85
2023/09/25 06:22:46;;;;;;;13.80;12.50;;;;;;;15.28;100.00;98885.70;106603;1281;22564;-84
2023/09/25 06:25:18;;;;;;;15.30;13.30;;;;;;;15.27;100.00;98881.16;106723;1270;25366;-84
2023/09/25 06:27:47;;;;;;;14.40;13.10;;;;;;;15.26;100.00;98885.02;106618;1270;22554;-85
2023/09/25 06:30:19;;;;;;;13.50;12.30;;;;;;;15.26;100.00;98885.13;106521;1274;22612;-86
2023/09/25 06:32:48;;;;;;;12.80;11.60;;;;;;;15.28;100.00;98885.56;106607;1284;25497;-82
2023/09/25 06:35:17;;;;;;;12.90;11.70;;;;;;;15.30;100.00;98888.40;106608;1281;22656;-83
2023/09/25 06:37:47;;;;;;;13.50;12.20;;;;;;;15.32;100.00;98890.48;106565;1269;22527;-82
2023/09/25 06:40:16;;;;;;;13.80;11.90;;;;;;;15.34;100.00;98889.84;106600;1284;22560;-82
2023/09/25 06:42:46;;;;;;;12.60;11.30;;;;;;;15.37;100.00;98888.08;106617;1283;25422;-83
2023/09/25 06:45:14;;;;;;;12.20;11.00;;;;;;;15.36;100.00;98891.33;106524;1284;25306;-83
2023/09/25 06:47:43;;;;;;;12.80;11.40;;;;;;;15.34;100.00;98893.55;106677;1284;22541;-83
2023/09/25 06:50:12;;;;;;;11.00;9.90;;;;;;;15.35;100.00;98896.12;106511;1284;23006;-80
2023/09/25 06:52:40;;;;;;;11.80;10.60;;;;;;;15.37;100.00;98892.42;106623;1271;22659;-81
2023/09/25 06:55:12;;;;;;;11.90;10.50;;;;;;;15.41;100.00;98891.41;106548;1284;22544;-79
2023/09/25 06:57:40;;;;;;;11.40;10.40;;;;;;;15.49;100.00;98888.20;107292;1269;22619;-80
2023/09/25 07:00:11;;;;;;;11.10;9.20;;;;;;;15.54;100.00;98885.09;106999;1271;22650;-81
2023/09/25 07:02:40;;;;;;;9.80;8.90;;;;;;;15.60;100.00;98882.61;106729;1281;22553;-85
2023/09/25 07:05:09;;;;;;;13.30;10.30;;;;;;;15.66;100.00;98882.44;106621;1284;23914;-85
2023/09/25 07:07:38;;;;;;;11.00;9.30;;;;;;;15.73;100.00;98881.21;106705;1278;22534;-85
2023/09/25 07:10:11;;;;;;;13.90;9.20;;;;;;;15.81;100.00;98880.52;106573;1284;22543;-84
2023/09/25 07:12:45;;;;;;;12.60;8.90;;;;;;;15.87;100.00;98881.80;106575;1271;23907;-86
2023/09/25 07:15:13;;;;;;;9.80;8.10;;;;;;;15.91;100.00;98877.08;106632;1276;22649;-85
2023/09/25 07:17:41;;;;;;;8.10;7.30;;;;;;;15.93;100.00;98877.25;106713;1281;25361;-86
2023/09/25 07:20:12;;;;;;;9.20;7.60;;;;;;;15.94;100.00;98876.55;107473;1276;22518;-86
2023/09/25 07:22:42;;;;;;;11.40;7.40;;;;;;;15.96;100.00;98880.31;109242;1284;24377;-85
2023/09/25 07:25:11;;;;;;;9.30;8.30;;;;;;;16.02;100.00;98885.34;108941;1284;22267;-83
2023/09/25 07:27:40;;;;;;;8.90;7.10;;;;;;;16.10;100.00;98886.06;108714;1284;25949;-85
2023/09/25 07:30:08;;;;;;;7.20;6.40;;;;;;;16.12;100.00;98892.02;108621;1284;22551;-89
2023/09/25 07:32:37;;;;;;;7.40;6.40;;;;;;;16.16;100.00;98889.88;107804;1281;24232;-89
2023/09/25 07:35:07;;;;;;;7.80;6.90;;;;;;;16.18;100.00;98888.58;107787;1283;25322;-91
2023/09/25 07:37:37;;;;;;;7.60;6.50;;;;;;;16.20;100.00;98888.69;107547;1284;25482;-93
2023/09/25 07:40:10;;;;;;;8.20;5.70;;;;;;;16.24;100.00;98887.33;107044;1277;22735;-92
2023/09/25 07:42:38;;;;;;;8.60;6.50;;;;;;;16.28;100.00;98890.10;106837;1273;22561;-86
2023/09/25 07:45:11;;;;;;;12.70;6.40;;;;;;;16.38;100.00;98891.60;106574;1280;22561;-89
2023/09/25 07:47:41;;;;;;;9.30;5.40;;;;;;;16.42;100.00;98901.24;106614;1283;22553;-87
2023/09/25 07:50:10;;;;;;;7.40;5.90;;;;;;;16.40;100.00;98905.96;107090;1284;22586;-82
2023/09/25 07:52:40;;;;;;;8.90;7.00;;;;;;;16.36;100.00;98902.90;106903;1277;22813;-86
2023/09/25 07:55:13;;;;;;;8.50;6.20;;;;;;;16.30;100.00;98903.66;106667;1284;22542;-83
2023/09/25 07:57:43;;;;;;;8.10;5.40;;;;;;;16.30;100.00;98906.81;106634;1269;25138;-82
2023/09/25 08:00:17;;;;;;;10.50;9.00;;;;;;;16.29;100.00;98902.42;106653;1284;22599;-82
2023/09/25 08:02:47;;;;;;;7.20;6.40;;;;;;;16.29;100.00;98904.92;106773;1277;25365;-83
2023/09/25 08:05:19;;;;;;;7.00;5.10;;;;;;;16.32;100.00;98904.15;106783;1284;22775;-86
2023/09/25 08:07:49;;;;;;;5.80;5.30;;;;;;;16.38;100.00;98910.58;106642;1284;22972;-84
2023/09/25 08:10:19;;;;;;;7.70;6.10;;;;;;;16.43;100.00;98908.29;106819;1277;22529;-82
2023/09/25 08:12:47;;;;;;;6.60;6.00;;;;;;;16.46;100.00;98907.05;106691;1276;25515;-83
2023/09/25 08:15:15;;;;;;;7.50;6.30;;;;;;;16.48;100.00;98907.99;106577;1284;22651;-82
2023/09/25 08:17:48;;;;;;;6.20;5.50;;;;;;;16.47;100.00;98904.95;106680;1270;23881;-83
2023/09/25 08:20:22;;;;;;;7.20;5.70;;;;;;;16.50;100.00;98900.58;106512;1284;25353;-85
2023/09/25 08:22:51;;;;;;;13.40;6.50;;;;;;;16.55;100.00;98899.80;106582;1284;22565;-83
2023/09/25 08:25:20;;;;;;;6.10;5.50;;;;;;;16.63;100.00;98897.30;106622;1284;23034;-85
2023/09/25 08:27:51;;;;;;;8.00;6.30;;;;;;;16.71;100.00;98895.16;106646;1284;22607;-83
2023/09/25 08:30:20;;;;;;;8.90;6.40;;;;;;;16.75;100.00;98893.64;106770;1281;25311;-83
2023/09/25 08:32:49;;;;;;;9.40;6.60;;;;;;;16.75;100.00;98894.20;106790;1278;25291;-84
2023/09/25 08:35:17;;;;;;;7.70;6.70;;;;;;;16.73;100.00;98895.94;106761;1284;22606;-84
2023/09/25 08:37:47;;;;;;;8.50;7.00;;;;;;;16.70;100.00;98895.13;106829;1273;23475;-83
2023/09/25 08:40:16;;;;;;;8.30;6.60;;;;;;;16.69;100.00;98895.22;106833;1284;22551;-84
2023/09/25 08:42:46;;;;;;;7.20;6.40;;;;;;;16.71;100.00;98900.22;106780;1273;22575;-83
2023/09/25 08:45:15;;;;;;;8.20;6.90;;;;;;;16.78;100.00;98900.38;106952;1284;24691;-83
2023/09/25 08:47:45;;;;;;;10.10;6.70;;;;;;;16.81;100.00;98900.57;107334;1284;22868;-84
2023/09/25 08:50:14;;;;;;;7.80;6.80;;;;;;;16.84;100.00;98896.80;108394;1284;22563;-83
2023/09/25 08:57:13;;;;;;;7.50;6.40;;;;;;;16.90;100.00;98902.55;106778;1281;22538;-84
2023/09/25 08:59:46;;;;;;;7.60;6.60;;;;;;;16.91;100.00;98905.27;106702;1284;22556;-85
2023/09/25 09:02:14;;;;;;;7.40;6.50;;;;;;;16.92;100.00;98903.43;106722;1283;25461;-85
2023/09/25 09:05:10;;;;;;;8.50;7.10;;;;;;;16.93;100.00;98902.77;106827;1271;22531;-90
2023/09/25 09:07:54;;;;;;;7.90;6.90;;;;;;;16.96;100.00;98900.75;106781;1284;22532;-88
2023/09/25 09:10:22;;;;;;;8.90;8.00;;;;;;;16.96;100.00;98902.86;106730;1284;25417;-86
2023/09/25 09:12:55;;;;;;;7.70;6.70;;;;;;;16.99;100.00;98901.11;106784;1278;22596;-87
2023/09/25 09:15:31;;;;;;;7.10;6.30;;;;;;;17.04;100.00;98900.26;106735;1284;22540;-84
2023/09/25 09:18:22;;;;;;;7.00;6.20;;;;;;;17.10;100.00;98904.39;106738;1284;22649;-87
2023/09/25 09:20:55;;;;;;;8.50;6.80;;;;;;;17.11;100.00;98901.23;106630;1284;22557;-87
2023/09/25 09:23:41;;;;;;;8.20;7.30;;;;;;;17.11;100.00;98903.77;106584;1284;23297;-84
2023/09/25 09:26:12;;;;;;;8.60;7.10;;;;;;;17.05;100.00;98903.42;106731;1281;23295;-85
2023/09/25 09:28:44;;;;;;;7.90;7.00;;;;;;;17.06;100.00;98902.61;106750;1281;23039;-86
2023/09/25 09:31:14;;;;;;;10.40;8.90;;;;;;;17.07;100.00;98897.38;106680;1284;22537;-85
2023/09/25 09:33:42;;;;;;;10.10;7.80;;;;;;;17.09;100.00;98895.20;106812;1278;22540;-82
2023/09/25 09:36:12;;;;;;;8.70;7.80;;;;;;;17.14;100.00;98893.70;106726;1284;26596;-81
2023/09/25 09:38:42;;;;;;;11.70;6.70;;;;;;;17.18;100.00;98892.98;106848;1271;22539;-84
2023/09/25 09:41:11;;;;;;;10.90;8.00;;;;;;;17.26;100.00;98895.63;106771;1284;22734;-82
2023/09/25 09:43:41;;;;;;;8.60;6.90;;;;;;;17.38;100.00;98894.13;106699;1284;22538;-81
2023/09/25 09:46:12;;;;;;;8.30;7.00;;;;;;;17.50;100.00;98896.92;106708;1273;23298;-84
2023/09/25 09:48:45;;;;;;;8.40;7.00;;;;;;;17.56;100.00;98893.36;106744;1270;22553;-82
2023/09/25 09:51:16;;;;;;;7.90;6.70;;;;;;;17.58;100.00;98891.27;106716;1284;22667;-82
2023/09/25 09:53:45;;;;;;;8.00;6.90;;;;;;;17.65;100.00;98887.11;106697;1284;22584;-82
2023/09/25 09:56:16;;;;;;;9.80;6.30;;;;;;;17.72;100.00;98885.54;106670;1284;22766;-83
2023/09/25 09:58:46;;;;;;;7.70;6.20;;;;;;;17.79;100.00;98887.04;106641;1284;25471;-81
2023/09/25 10:01:16;;;;;;;11.10;6.90;;;;;;;17.94;100.00;98883.73;106807;1284;22548;-85
2023/09/25 10:03:44;;;;;;;15.80;7.70;;;;;;;18.04;100.00;98874.91;106677;1281;25145;-85
2023/09/25 10:06:13;;;;;;;8.20;6.80;;;;;;;18.12;100.00;98879.36;106790;1284;22533;-83
2023/09/25 10:09:08;;;;;;;9.60;6.60;;;;;;;18.22;100.00;98874.56;106754;1284;22532;-83
2023/09/25 10:11:36;;;;;;;10.60;6.20;;;;;;;18.39;100.00;98872.16;106756;1281;23213;-84
2023/09/25 10:14:08;;;;;;;8.40;6.20;;;;;;;18.57;100.00;98871.58;106627;1266;22663;-84
2023/09/25 10:17:04;;;;;;;7.70;6.10;;;;;;;18.68;100.00;98873.39;106833;1284;22543;-88
2023/09/25 10:19:40;;;;;;;8.20;5.90;;;;;;;18.68;100.00;98875.60;106677;1284;24242;-87
2023/09/25 10:22:12;;;;;;;9.80;6.50;;;;;;;18.68;100.00;98882.61;106733;1278;22667;-85
2023/09/25 10:24:45;;;;;;;11.10;5.80;;;;;;;18.57;100.00;98881.71;106685;1284;22862;-85
2023/09/25 10:27:17;;;;;;;9.90;6.60;;;;;;;18.52;100.00;98882.02;106698;1284;22509;-85
2023/09/25 10:30:13;;;;;;;8.10;6.70;;;;;;;18.49;100.00;98883.01;106666;1284;23366;-86
2023/09/25 10:32:54;;;;;;;8.60;6.50;;;;;;;18.47;100.00;98882.57;106677;1284;26546;-85
2023/09/25 10:35:35;;;;;;;8.30;6.30;;;;;;;18.44;100.00;98883.58;106694;1284;24276;-84
2023/09/25 10:38:09;;;;;;;7.50;6.00;;;;;;;18.40;100.00;98880.94;106689;1277;22531;-84
2023/09/25 10:41:04;;;;;;;10.50;6.20;;;;;;;18.38;100.00;98885.16;106726;1284;22643;-84
2023/09/25 10:43:34;;;;;;;8.50;6.50;;;;;;;18.33;100.00;98886.81;106684;1269;24400;-84
2023/09/25 10:46:02;;;;;;;10.20;7.00;;;;;;;18.26;100.00;98888.15;106913;1276;24371;-84
2023/09/25 10:48:32;;;;;;;8.20;6.60;;;;;;;18.26;100.00;98890.17;106877;1273;24264;-84
2023/09/25 10:51:01;;;;;;;8.90;7.00;;;;;;;18.22;100.00;98894.30;107242;1277;25466;-84
2023/09/25 10:53:29;;;;;;;8.80;6.70;;;;;;;18.13;100.00;98897.35;106783;1284;22548;-84
2023/09/25 10:55:58;;;;;;;9.60;6.90;;;;;;;18.13;100.00;98895.15;106674;1284;22603;-84
2023/09/25 10:58:26;;;;;;;8.00;7.20;;;;;;;18.14;100.00;98896.13;106845;1278;25458;-82
2023/09/25 11:00:56;;;;;;;10.20;7.40;;;;;;;18.13;100.00;98900.38;106687;1277;22607;-83
2023/09/25 11:03:25;;;;;;;9.20;6.60;;;;;;;18.12;100.00;98902.60;106741;1284;22543;-83
2023/09/25 11:05:54;;;;;;;9.40;7.70;;;;;;;18.11;100.00;98900.85;106779;1276;22666;-83
2023/09/25 11:08:22;;;;;;;8.70;7.50;;;;;;;18.05;100.00;98899.27;106690;1284;22588;-83
2023/09/25 11:10:50;;;;;;;10.60;6.80;;;;;;;18.08;100.00;98900.85;106687;1276;22603;-83
2023/09/25 11:13:20;;;;;;;9.50;7.50;;;;;;;18.12;100.00;98903.59;106651;1284;23874;-83
2023/09/25 11:15:50;;;;;;;9.60;7.60;;;;;;;18.08;100.00;98906.00;106987;1284;25451;-84
2023/09/25 11:18:19;;;;;;;9.20;7.30;;;;;;;18.06;100.00;98903.91;109285;1284;22550;-85
2023/09/25 11:20:51;;;;;;;8.60;7.50;;;;;;;18.09;100.00;98898.34;108984;1278;22585;-86
2023/09/25 11:23:19;;;;;;;10.30;7.30;;;;;;;18.10;100.00;98895.02;109145;1284;22597;-85
2023/09/25 11:25:52;;;;;;;9.90;6.90;;;;;;;18.14;100.00;98896.79;108495;1284;22586;-86
2023/09/25 11:28:25;;;;;;;9.30;6.70;;;;;;;18.20;100.00;98896.30;106773;1284;22565;-84
2023/09/25 11:30:54;;;;;;;10.50;6.80;;;;;;;18.25;100.00;98894.96;106880;1284;22537;-85
2023/09/25 11:33:23;;;;;;;11.20;6.50;;;;;;;18.30;100.00;98897.19;106789;1284;25348;-85
2023/09/25 11:35:54;;;;;;;10.20;6.70;;;;;;;18.33;100.00;98896.64;107789;1283;24288;-86
2023/09/25 11:38:25;;;;;;;10.90;7.10;;;;;;;18.35;100.00;98893.36;106777;1283;22533;-85
2023/09/25 11:40:54;;;;;;;7.90;6.10;;;;;;;18.33;100.00;98887.03;106670;1277;22663;-84
2023/09/25 11:43:25;;;;;;;8.40;6.00;;;;;;;18.36;100.00;98889.79;106830;1278;22546;-82
2023/09/25 11:45:54;;;;;;;11.70;7.10;;;;;;;18.40;100.00;98888.64;106744;1277;25450;-86
2023/09/25 11:48:22;;;;;;;8.10;6.70;;;;;;;18.44;100.00;98889.41;108400;1284;25290;-82
2023/09/25 11:50:51;;;;;;;10.80;6.90;;;;;;;18.44;100.00;98889.41;107432;1277;22664;-82
2023/09/25 11:53:21;;;;;;;10.80;7.20;;;;;;;18.43;100.00;98891.50;106840;1284;22540;-84
2023/09/25 11:55:50;;;;;;;9.40;7.30;;;;;;;18.42;100.00;98888.48;106808;1284;24203;-86
2023/09/25 11:58:18;;;;;;;10.20;7.10;;;;;;;18.44;100.00;98885.79;106844;1283;25341;-85